Dorsey, Illinois
Current Conditions -  °F | °C
As of 6:50 AM on Saturday 20 Dec 2014 (Local Time) from KALN Reporting Station
Overcast Overcast  
Wind Chill: 26°   Ceiling: 2900
Heat Index: 32°   Visibility: 7mi
Dew Point: 28°   Wind: 6mph
Humidity: 87%   Direction: 110°ESE
Pressure: 30.26"   Gusts: NA
Location:  38.97°N, 90°W
Report Text: KALN 201250Z 11005KT 7SM BKN029 OVC065 00/M02 A3026
Loading
Personal Weather Stations






























Interactive Weather Map New forecast layout! Learn more

10-Day Weather Forecast

Advertisements
Track Severe Weather on mobile